createdAt,value
2018-09-01T00:00:14.647Z,0.00
2018-09-01T00:01:14.638Z,0.00
2018-09-01T00:02:14.632Z,0.00
2018-09-01T00:03:14.627Z,0.00
2018-09-01T00:04:14.627Z,0.00
2018-09-01T00:05:14.624Z,0.00
2018-09-01T00:06:14.618Z,0.00
2018-09-01T00:07:14.608Z,0.00
2018-09-01T00:08:14.599Z,0.00
2018-09-01T00:09:14.593Z,0.00
2018-09-01T00:10:14.592Z,0.00
2018-09-01T00:11:14.598Z,0.00
2018-09-01T00:12:14.576Z,0.00
2018-09-01T00:13:14.570Z,0.00
2018-09-01T00:14:14.565Z,0.00
2018-09-01T00:15:14.560Z,0.00
2018-09-01T00:16:14.559Z,0.00
2018-09-01T00:17:14.556Z,0.00
2018-09-01T00:18:14.546Z,0.00
2018-09-01T00:19:14.544Z,0.00
2018-09-01T00:20:14.534Z,0.00
2018-09-01T00:21:14.526Z,0.00
2018-09-01T00:22:14.519Z,0.00
2018-09-01T00:23:14.513Z,0.00
2018-09-01T00:24:14.513Z,0.00
2018-09-01T00:25:14.509Z,0.00
2018-09-01T00:26:14.495Z,0.00
2018-09-01T00:27:14.490Z,0.00
2018-09-01T00:28:14.489Z,0.00
2018-09-01T00:29:14.482Z,0.00
2018-09-01T00:30:14.478Z,0.00
2018-09-01T00:31:14.473Z,0.00
2018-09-01T00:32:14.462Z,0.00
2018-09-01T00:33:14.456Z,0.00
2018-09-01T00:34:14.449Z,0.00
2018-09-01T00:35:14.446Z,0.00
2018-09-01T00:36:14.443Z,0.00
2018-09-01T00:37:14.441Z,0.00
2018-09-01T00:38:14.431Z,0.00
2018-09-01T00:39:14.426Z,0.00
2018-09-01T00:40:14.414Z,0.00
2018-09-01T00:41:14.408Z,0.00
2018-09-01T00:42:14.406Z,0.00
2018-09-01T00:43:14.401Z,0.00
2018-09-01T00:44:14.391Z,0.00
2018-09-01T00:45:14.384Z,0.00
2018-09-01T00:46:14.378Z,0.00
2018-09-01T00:47:14.374Z,0.00
2018-09-01T00:48:14.373Z,0.00
2018-09-01T00:49:14.366Z,0.00
2018-09-01T00:50:14.360Z,0.00
2018-09-01T00:51:14.354Z,0.00
2018-09-01T00:52:14.344Z,0.00
2018-09-01T00:53:14.337Z,0.00
2018-09-01T00:54:14.333Z,0.00
2018-09-01T00:55:14.324Z,0.00
2018-09-01T00:56:14.324Z,0.00
2018-09-01T00:57:14.316Z,0.00
2018-09-01T00:58:14.346Z,0.00
2018-09-01T00:59:14.304Z,0.00
2018-09-01T01:00:14.300Z,0.00
2018-09-01T01:01:14.292Z,0.00
2018-09-01T01:02:14.288Z,0.00
2018-09-01T01:03:14.282Z,0.00
2018-09-01T01:04:14.271Z,0.00
2018-09-01T01:05:14.265Z,0.00
2018-09-01T01:06:14.259Z,0.00
2018-09-01T01:07:14.253Z,0.00
2018-09-01T01:08:14.252Z,0.00
2018-09-01T01:09:14.245Z,0.00
2018-09-01T01:10:14.239Z,0.00
2018-09-01T01:11:14.236Z,0.00
2018-09-01T01:12:14.223Z,0.00
2018-09-01T01:13:14.217Z,0.00
2018-09-01T01:14:14.222Z,0.00
2018-09-01T01:15:14.208Z,0.00
2018-09-01T01:16:14.198Z,0.00
2018-09-01T01:17:14.191Z,0.00
2018-09-01T01:18:14.186Z,0.00
2018-09-01T01:19:14.180Z,0.00
2018-09-01T01:20:14.179Z,0.00
2018-09-01T01:21:14.172Z,0.00
2018-09-01T01:22:14.165Z,0.00
2018-09-01T01:23:14.159Z,0.00
2018-09-01T01:24:14.149Z,0.00
2018-09-01T01:25:14.143Z,0.00
2018-09-01T01:26:14.137Z,0.00
2018-09-01T01:27:14.131Z,0.00
2018-09-01T01:28:14.134Z,0.00
2018-09-01T01:29:14.125Z,0.00
2018-09-01T01:30:14.113Z,0.00
2018-09-01T01:31:14.106Z,0.00
2018-09-01T01:32:14.105Z,0.00
2018-09-01T01:33:14.099Z,0.00
2018-09-01T01:34:14.091Z,0.00
2018-09-01T01:35:14.085Z,0.00
2018-09-01T01:36:14.075Z,0.00
2018-09-01T01:37:14.068Z,0.00
2018-09-01T01:38:14.062Z,0.00
2018-09-01T01:39:14.056Z,0.00
2018-09-01T01:40:14.055Z,0.00
2018-09-01T01:41:14.048Z,0.00
2018-09-01T01:42:14.042Z,0.00
2018-09-01T01:43:14.037Z,0.00
2018-09-01T01:44:14.027Z,0.00
2018-09-01T01:45:14.020Z,0.00
2018-09-01T01:46:14.019Z,0.00
2018-09-01T01:47:14.012Z,0.00
2018-09-01T01:48:14.001Z,0.00
2018-09-01T01:49:13.993Z,0.00
2018-09-01T01:50:13.989Z,0.00
2018-09-01T01:51:13.981Z,0.00
2018-09-01T01:52:13.983Z,0.00
2018-09-01T01:53:13.972Z,0.00
2018-09-01T01:54:13.968Z,0.00
2018-09-01T01:55:13.960Z,0.00
2018-09-01T01:56:13.950Z,0.00
2018-09-01T01:57:13.942Z,0.00
2018-09-01T01:58:13.938Z,0.00
2018-09-01T01:59:13.930Z,0.00
2018-09-01T02:00:13.929Z,0.00
2018-09-01T02:01:13.923Z,0.00
2018-09-01T02:02:13.915Z,0.00
2018-09-01T02:03:13.906Z,0.00
2018-09-01T02:04:13.904Z,0.00
2018-09-01T02:05:13.897Z,0.00
2018-09-01T02:06:13.892Z,0.00
2018-09-01T02:07:13.883Z,0.00
2018-09-01T02:08:13.874Z,0.00
2018-09-01T02:09:13.868Z,0.00
2018-09-01T02:10:13.862Z,0.00
2018-09-01T02:11:13.854Z,0.00
2018-09-01T02:12:13.851Z,0.00
2018-09-01T02:13:13.846Z,0.00
2018-09-01T02:14:13.839Z,0.00
2018-09-01T02:15:13.832Z,0.00
2018-09-01T02:16:13.821Z,0.00
2018-09-01T02:17:13.814Z,0.00
2018-09-01T02:18:13.813Z,0.00
2018-09-01T02:19:13.806Z,0.00
2018-09-01T02:20:13.796Z,0.00
2018-09-01T02:21:13.789Z,0.00
2018-09-01T02:22:13.785Z,0.00
2018-09-01T02:23:13.776Z,0.00
2018-09-01T02:24:13.775Z,0.00
2018-09-01T02:25:13.766Z,0.00
2018-09-01T02:26:13.761Z,0.00
2018-09-01T02:27:13.757Z,0.00
2018-09-01T02:28:13.744Z,0.00
2018-09-01T02:29:13.743Z,0.00
2018-09-01T02:30:13.730Z,0.00
2018-09-01T02:31:13.731Z,0.00
2018-09-01T02:32:13.723Z,0.00
2018-09-01T02:33:13.714Z,0.00
2018-09-01T02:34:13.704Z,0.00
2018-09-01T02:35:13.700Z,0.00
2018-09-01T02:36:13.696Z,0.00
2018-09-01T02:37:13.688Z,0.00
2018-09-01T02:38:13.689Z,0.00
2018-09-01T02:39:13.676Z,0.00
2018-09-01T02:40:13.665Z,0.00
2018-09-01T02:41:13.658Z,0.00
2018-09-01T02:42:13.652Z,0.00
2018-09-01T02:43:13.645Z,0.00
2018-09-01T02:44:13.644Z,0.00
2018-09-01T02:45:13.640Z,0.00
2018-09-01T02:46:13.629Z,0.00
2018-09-01T02:47:13.622Z,0.00
2018-09-01T02:48:13.612Z,0.00
2018-09-01T02:49:13.605Z,0.00
2018-09-01T02:50:13.605Z,0.00
2018-09-01T02:51:13.596Z,0.00
2018-09-01T02:52:13.586Z,0.00
2018-09-01T02:53:13.578Z,0.00
2018-09-01T02:54:13.573Z,0.00
2018-09-01T02:55:13.566Z,0.00
2018-09-01T02:56:13.565Z,0.00
2018-09-01T02:57:13.557Z,0.00
2018-09-01T02:58:13.552Z,0.00
2018-09-01T02:59:13.544Z,0.00
2018-09-01T03:00:13.534Z,0.00
2018-09-01T03:01:13.530Z,0.00
2018-09-01T03:02:13.518Z,0.00
2018-09-01T03:03:13.511Z,0.00
2018-09-01T03:04:13.510Z,0.00
2018-09-01T03:05:13.506Z,0.00
2018-09-01T03:06:13.491Z,0.00
2018-09-01T03:07:13.486Z,0.00
2018-09-01T03:08:13.485Z,0.00
2018-09-01T03:09:13.476Z,0.00
2018-09-01T03:10:13.480Z,0.00
2018-09-01T03:11:13.463Z,0.00
2018-09-01T03:12:13.452Z,0.00
2018-09-01T03:13:13.448Z,0.00
2018-09-01T03:14:13.438Z,0.00
2018-09-01T03:15:13.431Z,0.00
2018-09-01T03:16:13.430Z,0.00
2018-09-01T03:17:13.422Z,0.00
2018-09-01T03:18:13.415Z,0.00
2018-09-01T03:19:13.412Z,0.00
2018-09-01T03:20:13.398Z,0.00
2018-09-01T03:21:13.392Z,0.00
2018-09-01T03:22:13.388Z,0.00
2018-09-01T03:23:13.381Z,0.00
2018-09-01T03:24:13.371Z,0.00
2018-09-01T03:25:13.363Z,0.00
2018-09-01T03:26:13.356Z,0.00
2018-09-01T03:27:13.349Z,0.00
2018-09-01T03:28:13.348Z,0.00
2018-09-01T03:29:13.341Z,0.00
2018-09-01T03:30:13.335Z,0.00
2018-09-01T03:31:13.327Z,0.00
2018-09-01T03:32:13.315Z,0.00
2018-09-01T03:33:13.315Z,0.00
2018-09-01T03:34:13.311Z,0.00
2018-09-01T03:35:13.295Z,0.00
2018-09-01T03:36:13.293Z,0.00
2018-09-01T03:37:13.285Z,0.00
2018-09-01T03:38:13.274Z,0.00
2018-09-01T03:39:13.266Z,0.00
2018-09-01T03:40:13.264Z,0.00
2018-09-01T03:41:13.258Z,0.00
2018-09-01T03:42:13.250Z,0.00
2018-09-01T03:43:13.243Z,0.00
2018-09-01T03:44:13.236Z,0.00
2018-09-01T03:45:13.225Z,0.00
2018-09-01T03:46:13.219Z,0.00
2018-09-01T03:47:13.212Z,0.00
2018-09-01T03:48:13.210Z,0.00
2018-09-01T03:49:13.202Z,0.00
2018-09-01T03:50:13.195Z,0.00
2018-09-01T03:51:13.192Z,0.00
2018-09-01T03:52:13.177Z,0.00
2018-09-01T03:53:13.171Z,0.00
2018-09-01T03:54:13.168Z,0.00
2018-09-01T03:55:13.161Z,0.00
2018-09-01T03:56:13.151Z,0.00
2018-09-01T03:57:13.142Z,0.00
2018-09-01T03:58:13.134Z,0.00
2018-09-01T03:59:13.128Z,0.00
2018-09-01T04:00:13.126Z,0.00
2018-09-01T04:01:13.119Z,0.00
2018-09-01T04:02:13.112Z,0.00
2018-09-01T04:03:13.105Z,0.00
2018-09-01T04:04:13.093Z,0.00
2018-09-01T04:05:13.117Z,0.00
2018-09-01T04:06:13.079Z,0.00
2018-09-01T04:07:13.072Z,0.00
2018-09-01T04:08:13.071Z,0.00
2018-09-01T04:09:13.071Z,0.00
2018-09-01T04:10:13.056Z,0.00
2018-09-01T04:11:13.046Z,0.00
2018-09-01T04:12:13.047Z,4.00
2018-09-01T04:13:13.035Z,4.00
2018-09-01T04:14:13.027Z,4.00
2018-09-01T04:15:13.023Z,4.00
2018-09-01T04:16:13.013Z,4.00
2018-09-01T04:17:13.002Z,8.00
2018-09-01T04:18:12.995Z,4.00
2018-09-01T04:19:12.988Z,4.00
2018-09-01T04:20:12.986Z,4.00
2018-09-01T04:21:12.978Z,12.00
2018-09-01T04:22:12.973Z,12.00
2018-09-01T04:23:12.966Z,12.00
2018-09-01T04:24:12.956Z,16.00
2018-09-01T04:25:12.946Z,16.00
2018-09-01T04:26:12.945Z,20.00
2018-09-01T04:27:12.941Z,24.00
2018-09-01T04:28:12.926Z,28.00
2018-09-01T04:29:12.918Z,32.00
2018-09-01T04:30:12.912Z,36.00
2018-09-01T04:31:12.903Z,44.00
2018-09-01T04:32:12.903Z,48.00
2018-09-01T04:33:12.895Z,56.00
2018-09-01T04:34:12.890Z,64.00
2018-09-01T04:35:12.882Z,72.00
2018-09-01T04:36:12.869Z,80.00
2018-09-01T04:37:12.861Z,92.00
2018-09-01T04:38:12.856Z,104.00
2018-09-01T04:39:12.847Z,116.00
2018-09-01T04:40:12.845Z,124.00
2018-09-01T04:41:12.837Z,140.00
2018-09-01T04:42:12.826Z,156.00
2018-09-01T04:43:12.819Z,168.00
2018-09-01T04:44:12.817Z,188.00
2018-09-01T04:45:12.813Z,204.00
2018-09-01T04:46:12.803Z,224.00
2018-09-01T04:47:12.865Z,244.00
2018-09-01T04:48:12.784Z,268.00
2018-09-01T04:49:12.777Z,292.00
2018-09-01T04:50:12.770Z,316.00
2018-09-01T04:51:12.763Z,340.00
2018-09-01T04:52:12.762Z,368.00
2018-09-01T04:53:12.753Z,400.00
2018-09-01T04:54:12.745Z,428.00
2018-09-01T04:55:12.739Z,464.00
2018-09-01T04:56:12.727Z,500.00
2018-09-01T04:57:12.721Z,536.00
2018-09-01T04:58:12.721Z,580.00
2018-09-01T04:59:12.715Z,624.00
2018-09-01T05:00:12.701Z,668.00
2018-09-01T05:01:12.862Z,712.00
2018-09-01T05:02:12.687Z,756.00
2018-09-01T05:03:12.682Z,808.00
2018-09-01T05:04:12.676Z,860.00
2018-09-01T05:05:12.668Z,912.00
2018-09-01T05:06:12.661Z,968.00
2018-09-01T05:07:12.656Z,1024.00
2018-09-01T05:08:12.654Z,1088.00
2018-09-01T05:09:12.637Z,1152.00
2018-09-01T05:10:12.627Z,1212.00
2018-09-01T05:11:12.624Z,1276.00
2018-09-01T05:12:12.618Z,1344.00
2018-09-01T05:13:12.611Z,1416.00
2018-09-01T05:14:12.600Z,1496.00
2018-09-01T05:15:12.599Z,1568.00
2018-09-01T05:16:12.591Z,1636.00
2018-09-01T05:17:12.583Z,1736.00
2018-09-01T05:18:12.576Z,1952.00
2018-09-01T05:19:12.570Z,2048.00
2018-09-01T05:20:12.557Z,2108.00
2018-09-01T05:21:12.551Z,2240.00
2018-09-01T05:22:12.544Z,2400.00
2018-09-01T05:23:12.538Z,2768.00
2018-09-01T05:24:12.536Z,3352.00
2018-09-01T05:25:12.529Z,4168.00
2018-09-01T05:26:12.520Z,5100.00
2018-09-01T05:27:12.515Z,5616.00
2018-09-01T05:28:12.504Z,5932.00
2018-09-01T05:29:12.498Z,6220.00
2018-09-01T05:30:12.494Z,6528.00
2018-09-01T05:31:12.488Z,6868.00
2018-09-01T05:32:12.477Z,7212.00
2018-09-01T05:33:12.471Z,7608.00
2018-09-01T05:34:12.465Z,7976.00
2018-09-01T05:35:12.459Z,8300.00
2018-09-01T05:36:12.459Z,8592.00
2018-09-01T05:37:12.452Z,8868.00
2018-09-01T05:38:12.446Z,9164.00
2018-09-01T05:39:12.442Z,9480.00
2018-09-01T05:40:12.431Z,9696.00
2018-09-01T05:41:12.426Z,10076.00
2018-09-01T05:42:12.422Z,10412.00
2018-09-01T05:43:12.418Z,10728.00
2018-09-01T05:44:12.418Z,11028.00
2018-09-01T05:45:12.415Z,11380.00
2018-09-01T05:46:12.408Z,11756.00
2018-09-01T05:47:12.402Z,12120.00
2018-09-01T05:48:12.407Z,12428.00
2018-09-01T05:49:12.399Z,12864.00
2018-09-01T05:50:12.396Z,13152.00
2018-09-01T05:51:12.391Z,13408.00
2018-09-01T05:52:12.385Z,13664.00
2018-09-01T05:53:12.382Z,13888.00
2018-09-01T05:54:12.379Z,14208.00
2018-09-01T05:55:12.377Z,14464.00
2018-09-01T05:56:12.385Z,14752.00
2018-09-01T05:57:12.378Z,15040.00
2018-09-01T05:58:12.377Z,15328.00
2018-09-01T05:59:12.376Z,15520.00
2018-09-01T06:00:12.371Z,15584.00
2018-09-01T06:01:12.367Z,15648.00
2018-09-01T06:02:12.372Z,15840.00
2018-09-01T06:03:12.372Z,16096.00
2018-09-01T06:04:12.365Z,16288.00
2018-09-01T06:05:12.365Z,16576.00
2018-09-01T06:06:12.486Z,16864.00
2018-09-01T06:07:12.365Z,17024.00
2018-09-01T06:08:12.370Z,17216.00
2018-09-01T06:09:12.368Z,17376.00
2018-09-01T06:10:12.373Z,17632.00
2018-09-01T06:11:12.370Z,17728.00
2018-09-01T06:12:12.366Z,18080.00
2018-09-01T06:13:12.367Z,18176.00
2018-09-01T06:14:12.366Z,18496.00
2018-09-01T06:15:12.368Z,18720.00
2018-09-01T06:16:12.374Z,18752.00
2018-09-01T06:17:12.375Z,18976.00
2018-09-01T06:18:12.372Z,19168.00
2018-09-01T06:19:12.396Z,19552.00
2018-09-01T06:20:12.379Z,19808.00
2018-09-01T06:21:12.379Z,20192.00
2018-09-01T06:22:12.381Z,20512.00
2018-09-01T06:23:12.383Z,20704.00
2018-09-01T06:24:12.383Z,20896.00
2018-09-01T06:25:12.383Z,21248.00
2018-09-01T06:26:12.385Z,21536.00
2018-09-01T06:27:12.388Z,21760.00
2018-09-01T06:28:12.395Z,21888.00
2018-09-01T06:29:12.396Z,22208.00
2018-09-01T06:30:12.471Z,22464.00
2018-09-01T06:31:12.403Z,22624.00
2018-09-01T06:32:12.402Z,22720.00
2018-09-01T06:33:12.404Z,22880.00
2018-09-01T06:34:12.411Z,23072.00
2018-09-01T06:35:12.414Z,23328.00
2018-09-01T06:36:12.412Z,23552.00
2018-09-01T06:37:12.414Z,23808.00
2018-09-01T06:38:12.417Z,24096.00
2018-09-01T06:39:12.421Z,24320.00
2018-09-01T06:40:12.430Z,24640.00
2018-09-01T06:41:12.432Z,24960.00
2018-09-01T06:42:12.436Z,25152.00
2018-09-01T06:43:12.480Z,25376.00
2018-09-01T06:44:12.438Z,25632.00
2018-09-01T06:45:12.444Z,25824.00
2018-09-01T06:46:12.450Z,26016.00
2018-09-01T06:47:12.450Z,26240.00
2018-09-01T06:48:12.459Z,26400.00
2018-09-01T06:49:12.463Z,26624.00
2018-09-01T06:50:12.463Z,26752.00
2018-09-01T06:51:12.467Z,26848.00
2018-09-01T06:52:12.477Z,27040.00
2018-09-01T06:53:12.480Z,27232.00
2018-09-01T06:54:12.486Z,27328.00
2018-09-01T06:55:12.491Z,27488.00
2018-09-01T06:56:12.491Z,27648.00
2018-09-01T06:57:12.495Z,27808.00
2018-09-01T06:58:12.500Z,27872.00
2018-09-01T06:59:12.505Z,28000.00
2018-09-01T07:00:12.517Z,28128.00
2018-09-01T07:01:12.520Z,28288.00
2018-09-01T07:02:12.525Z,28512.00
2018-09-01T07:03:12.537Z,28640.00
2018-09-01T07:04:12.531Z,28832.00
2018-09-01T07:05:12.536Z,28992.00
2018-09-01T07:06:12.548Z,29088.00
2018-09-01T07:07:12.561Z,29280.00
2018-09-01T07:08:12.554Z,29408.00
2018-09-01T07:09:12.560Z,29632.00
2018-09-01T07:10:12.566Z,29792.00
2018-09-01T07:11:12.572Z,29952.00
2018-09-01T07:12:12.584Z,30112.00
2018-09-01T07:13:12.589Z,30176.00
2018-09-01T07:14:12.596Z,30368.00
2018-09-01T07:15:12.603Z,30560.00
2018-09-01T07:16:12.603Z,30560.00
2018-09-01T07:17:12.610Z,30752.00
2018-09-01T07:18:12.616Z,30880.00
2018-09-01T07:19:12.623Z,30976.00
2018-09-01T07:20:12.635Z,31104.00
2018-09-01T07:21:12.641Z,31264.00
2018-09-01T07:22:12.642Z,31360.00
2018-09-01T07:23:12.649Z,31424.00
2018-09-01T07:24:12.661Z,31488.00
2018-09-01T07:25:12.669Z,31648.00
2018-09-01T07:26:12.676Z,31712.00
2018-09-01T07:27:12.684Z,31872.00
2018-09-01T07:28:12.685Z,32000.00
2018-09-01T07:29:12.691Z,32192.00
2018-09-01T07:30:12.790Z,32352.00
2018-09-01T07:31:13.041Z,32576.00
2018-09-01T07:32:12.722Z,32800.00
2018-09-01T07:33:12.726Z,32960.00
2018-09-01T07:34:12.733Z,33152.00
2018-09-01T07:35:12.741Z,33408.00
2018-09-01T07:36:12.745Z,33568.00
2018-09-01T07:37:12.758Z,33760.00
2018-09-01T07:38:12.764Z,33984.00
2018-09-01T07:39:12.771Z,34176.00
2018-09-01T07:40:12.778Z,34496.00
2018-09-01T07:41:12.784Z,34624.00
2018-09-01T07:42:12.793Z,34784.00
2018-09-01T07:43:12.802Z,34880.00
2018-09-01T07:44:12.817Z,35040.00
2018-09-01T07:45:12.824Z,35328.00
2018-09-01T07:46:12.832Z,35456.00
2018-09-01T07:47:12.846Z,35424.00
2018-09-01T07:48:12.845Z,35840.00
2018-09-01T07:49:12.854Z,36416.00
2018-09-01T07:50:12.863Z,36992.00
2018-09-01T07:51:12.872Z,37376.00
2018-09-01T07:52:12.885Z,37504.00
2018-09-01T07:53:12.894Z,37888.00
2018-09-01T07:54:12.898Z,38592.00
2018-09-01T07:55:12.907Z,39424.00
2018-09-01T07:56:13.111Z,40352.00
2018-09-01T07:57:12.930Z,41568.00
2018-09-01T07:58:12.937Z,44000.00
2018-09-01T07:59:12.951Z,50272.00
2018-09-01T08:00:12.953Z,56736.00
2018-09-01T08:01:12.961Z,61408.00
2018-09-01T08:02:12.971Z,65568.00
2018-09-01T08:03:12.980Z,53984.00
2018-09-01T08:04:12.993Z,51680.00
2018-09-01T08:05:13.004Z,53024.00
2018-09-01T08:06:13.014Z,55264.00
2018-09-01T08:07:13.023Z,57024.00
2018-09-01T08:08:13.031Z,59936.00
2018-09-01T08:09:13.036Z,64736.00
2018-09-01T08:10:13.103Z,67904.00
2018-09-01T08:11:13.062Z,72384.00
2018-09-01T08:12:13.069Z,75456.00
2018-09-01T08:13:13.076Z,76640.00
2018-09-01T08:14:13.250Z,80160.00
2018-09-01T08:15:13.096Z,78624.00
2018-09-01T08:16:13.111Z,80928.00
2018-09-01T08:17:13.119Z,84032.00
2018-09-01T08:18:13.131Z,88288.00
2018-09-01T08:19:13.141Z,92640.00
2018-09-01T08:20:13.147Z,89120.00
2018-09-01T08:21:13.157Z,85472.00
2018-09-01T08:22:13.168Z,81760.00
2018-09-01T08:23:13.179Z,83904.00
2018-09-01T08:24:13.196Z,85344.00
2018-09-01T08:25:13.205Z,78176.00
2018-09-01T08:26:13.298Z,67712.00
2018-09-01T08:27:13.225Z,63680.00
2018-09-01T08:28:13.240Z,59968.00
2018-09-01T08:29:13.252Z,50464.00
2018-09-01T08:30:13.263Z,48256.00
2018-09-01T08:31:13.275Z,43808.00
2018-09-01T08:32:13.286Z,39360.00
2018-09-01T08:33:13.293Z,38432.00
2018-09-01T08:34:13.305Z,37120.00
2018-09-01T08:35:13.316Z,35264.00
2018-09-01T08:36:13.334Z,34272.00
2018-09-01T08:37:13.345Z,33504.00
2018-09-01T08:38:13.358Z,31872.00
2018-09-01T08:39:13.368Z,31104.00
2018-09-01T08:40:13.426Z,31488.00
2018-09-01T08:41:13.388Z,30720.00
2018-09-01T08:42:13.405Z,30464.00
2018-09-01T08:43:13.416Z,30848.00
2018-09-01T08:44:13.424Z,30464.00
2018-09-01T08:45:13.473Z,29216.00
2018-09-01T08:46:13.447Z,28928.00
2018-09-01T08:47:13.460Z,28800.00
2018-09-01T08:48:13.475Z,29664.00
2018-09-01T08:49:13.486Z,30304.00
2018-09-01T08:50:13.503Z,30432.00
2018-09-01T08:51:13.511Z,30752.00
2018-09-01T08:52:13.519Z,30592.00
2018-09-01T08:53:13.530Z,31264.00
2018-09-01T08:54:13.545Z,32320.00
2018-09-01T08:55:13.556Z,32864.00
2018-09-01T08:56:13.573Z,34272.00
2018-09-01T08:57:13.589Z,33536.00
2018-09-01T08:58:13.593Z,31904.00
2018-09-01T08:59:13.609Z,32128.00
2018-09-01T09:00:13.622Z,32352.00
2018-09-01T09:01:13.634Z,32384.00
2018-09-01T09:02:13.645Z,32640.00
2018-09-01T09:03:13.657Z,32704.00
2018-09-01T09:04:13.669Z,33056.00
2018-09-01T09:05:13.678Z,33024.00
2018-09-01T09:06:13.690Z,33184.00
2018-09-01T09:07:13.709Z,33760.00
2018-09-01T09:08:13.719Z,34144.00
2018-09-01T09:09:13.732Z,34368.00
2018-09-01T09:10:13.746Z,33760.00
2018-09-01T09:11:13.759Z,32928.00
2018-09-01T09:12:13.767Z,32672.00
2018-09-01T09:13:13.784Z,32576.00
2018-09-01T09:14:13.796Z,32832.00
2018-09-01T09:15:13.810Z,33376.00
2018-09-01T09:16:13.818Z,33120.00
2018-09-01T09:17:13.830Z,33248.00
2018-09-01T09:18:13.844Z,32960.00
2018-09-01T09:19:13.857Z,32736.00
2018-09-01T09:20:13.874Z,32544.00
2018-09-01T09:21:13.885Z,32640.00
2018-09-01T09:22:13.899Z,32800.00
2018-09-01T09:23:13.913Z,33344.00
2018-09-01T09:24:13.922Z,34176.00
2018-09-01T09:25:13.936Z,34016.00
2018-09-01T09:26:13.947Z,33952.00
2018-09-01T09:27:13.961Z,34240.00
2018-09-01T09:28:13.981Z,34464.00
2018-09-01T09:29:13.990Z,35168.00
2018-09-01T09:30:13.998Z,35904.00
2018-09-01T09:31:14.016Z,36256.00
2018-09-01T09:32:14.030Z,34208.00
2018-09-01T09:33:14.043Z,32224.00
2018-09-01T09:34:14.056Z,31296.00
2018-09-01T09:35:14.068Z,31264.00
2018-09-01T09:36:14.079Z,30432.00
2018-09-01T09:37:14.089Z,29376.00
2018-09-01T09:38:14.103Z,28768.00
2018-09-01T09:39:14.116Z,27776.00
2018-09-01T09:40:14.133Z,27360.00
2018-09-01T09:41:14.146Z,27200.00
2018-09-01T09:42:14.162Z,27520.00
2018-09-01T09:43:14.174Z,27744.00
2018-09-01T09:44:14.182Z,27968.00
2018-09-01T09:45:14.193Z,27872.00
2018-09-01T09:46:14.212Z,27712.00
2018-09-01T09:47:14.224Z,27744.00
2018-09-01T09:48:14.234Z,27904.00
2018-09-01T09:49:14.244Z,27776.00
2018-09-01T09:50:14.258Z,27744.00
2018-09-01T09:51:14.271Z,27872.00
2018-09-01T09:52:14.295Z,28032.00
2018-09-01T09:53:14.299Z,28000.00
2018-09-01T09:54:14.314Z,28000.00
2018-09-01T09:55:14.329Z,28032.00
2018-09-01T09:56:14.342Z,28288.00
2018-09-01T09:57:14.348Z,28512.00
2018-09-01T09:58:14.421Z,28544.00
2018-09-01T09:59:14.373Z,29152.00
2018-09-01T10:00:14.392Z,29504.00
2018-09-01T10:01:14.403Z,29952.00
2018-09-01T10:02:14.412Z,30624.00
2018-09-01T10:03:14.459Z,30976.00
2018-09-01T10:04:14.443Z,31392.00
2018-09-01T10:05:14.506Z,31968.00
2018-09-01T10:06:14.471Z,31840.00
2018-09-01T10:07:14.484Z,32320.00
2018-09-01T10:08:14.494Z,33184.00
2018-09-01T10:09:14.503Z,33184.00
2018-09-01T10:10:14.517Z,33408.00
2018-09-01T10:11:14.532Z,33728.00
2018-09-01T10:12:14.552Z,33696.00
2018-09-01T10:13:14.559Z,34880.00
2018-09-01T10:14:14.571Z,35488.00
2018-09-01T10:15:14.584Z,35360.00
2018-09-01T10:16:14.592Z,35712.00
2018-09-01T10:17:14.605Z,37056.00
2018-09-01T10:18:14.622Z,38304.00
2018-09-01T10:19:14.633Z,37568.00
2018-09-01T10:20:14.798Z,36768.00
2018-09-01T10:21:14.655Z,37280.00
2018-09-01T10:22:14.666Z,25824.00
2018-09-01T10:23:14.680Z,11320.00
2018-09-01T10:24:14.697Z,27616.00
2018-09-01T10:25:14.708Z,9384.00
2018-09-01T10:26:14.725Z,8780.00
2018-09-01T10:27:14.733Z,33408.00
2018-09-01T10:28:14.741Z,33024.00
2018-09-01T10:29:14.750Z,32608.00
2018-09-01T10:30:14.762Z,32544.00
2018-09-01T10:31:14.773Z,32352.00
2018-09-01T10:32:14.788Z,15168.00
2018-09-01T10:33:14.799Z,34720.00
2018-09-01T10:34:14.805Z,34784.00
2018-09-01T10:35:14.823Z,35552.00
2018-09-01T10:36:14.832Z,36320.00
2018-09-01T10:37:14.842Z,35808.00
2018-09-01T10:38:14.857Z,35232.00
2018-09-01T10:39:14.867Z,35776.00
2018-09-01T10:40:14.872Z,30304.00
2018-09-01T10:41:14.881Z,18432.00
2018-09-01T10:42:14.893Z,13460.00
2018-09-01T10:43:14.905Z,31392.00
2018-09-01T10:44:14.960Z,34400.00
2018-09-01T10:45:14.931Z,24128.00
2018-09-01T10:46:14.941Z,33952.00
2018-09-01T10:47:14.959Z,11064.00
2018-09-01T10:48:14.960Z,8412.00
2018-09-01T10:49:14.969Z,8384.00
2018-09-01T10:50:14.984Z,8456.00
2018-09-01T10:51:14.998Z,8192.00
2018-09-01T10:52:15.002Z,8152.00
2018-09-01T10:53:15.010Z,8088.00
2018-09-01T10:54:15.019Z,8216.00
2018-09-01T10:55:15.028Z,8316.00
2018-09-01T10:56:15.043Z,8508.00
2018-09-01T10:57:15.051Z,8464.00
2018-09-01T10:58:15.059Z,8448.00
2018-09-01T10:59:15.114Z,9008.00
2018-09-01T11:00:15.071Z,10292.00
2018-09-01T11:01:15.077Z,10964.00
2018-09-01T11:02:15.084Z,12508.00
2018-09-01T11:03:15.144Z,11028.00
2018-09-01T11:04:15.105Z,13316.00
2018-09-01T11:05:15.205Z,11996.00
2018-09-01T11:06:15.112Z,11172.00
2018-09-01T11:07:15.119Z,11252.00
2018-09-01T11:08:15.133Z,11432.00
2018-09-01T11:09:15.135Z,13632.00
2018-09-01T11:10:15.140Z,29088.00
2018-09-01T11:11:15.148Z,19168.00
2018-09-01T11:12:15.147Z,15864.00
2018-09-01T11:13:15.152Z,9256.00
2018-09-01T11:14:15.158Z,8156.00
2018-09-01T11:15:15.164Z,7460.00
2018-09-01T11:16:15.174Z,7572.00
2018-09-01T11:17:15.181Z,8068.00
2018-09-01T11:18:15.186Z,8652.00
2018-09-01T11:19:15.192Z,9276.00
2018-09-01T11:20:15.374Z,10044.00
2018-09-01T11:21:15.197Z,10676.00
2018-09-01T11:22:15.208Z,11220.00
2018-09-01T11:23:15.213Z,11512.00
2018-09-01T11:24:15.219Z,12676.00
2018-09-01T11:25:15.218Z,15232.00
2018-09-01T11:26:15.221Z,13896.00
2018-09-01T11:27:15.238Z,11224.00
2018-09-01T11:28:15.381Z,9800.00
2018-09-01T11:29:15.239Z,9544.00
2018-09-01T11:30:15.243Z,9044.00
2018-09-01T11:31:15.248Z,8816.00
2018-09-01T11:32:15.250Z,8360.00
2018-09-01T11:33:15.278Z,7988.00
2018-09-01T11:34:15.257Z,7652.00
2018-09-01T11:35:15.261Z,7424.00
2018-09-01T11:36:15.270Z,7224.00
2018-09-01T11:37:15.272Z,7604.00
2018-09-01T11:38:15.277Z,7784.00
2018-09-01T11:39:15.276Z,7584.00
2018-09-01T11:40:15.354Z,7500.00
2018-09-01T11:41:15.288Z,7060.00
2018-09-01T11:42:15.291Z,7016.00
2018-09-01T11:43:15.307Z,6692.00
2018-09-01T11:44:15.294Z,6800.00
2018-09-01T11:45:15.301Z,7188.00
2018-09-01T11:46:15.300Z,7500.00
2018-09-01T11:47:15.303Z,8448.00
2018-09-01T11:48:15.313Z,7204.00
2018-09-01T11:49:15.313Z,7124.00
2018-09-01T11:50:15.316Z,7028.00
2018-09-01T11:51:15.320Z,6888.00
2018-09-01T11:52:15.317Z,6736.00
2018-09-01T11:53:15.537Z,7924.00
2018-09-01T11:54:15.329Z,7444.00
2018-09-01T11:55:15.334Z,8568.00
2018-09-01T11:56:15.329Z,9332.00
2018-09-01T11:57:15.331Z,9972.00
2018-09-01T11:58:15.333Z,10580.00
2018-09-01T11:59:15.335Z,11032.00
2018-09-01T12:00:15.344Z,11352.00
2018-09-01T12:01:15.343Z,11376.00
2018-09-01T12:02:15.385Z,11368.00
2018-09-01T12:03:15.350Z,11252.00
2018-09-01T12:04:15.347Z,10684.00
2018-09-01T12:05:15.349Z,9608.00
2018-09-01T12:06:15.352Z,9244.00
2018-09-01T12:07:15.354Z,8724.00
2018-09-01T12:08:15.362Z,8076.00
2018-09-01T12:09:15.423Z,7396.00
2018-09-01T12:10:15.362Z,6816.00
2018-09-01T12:11:15.365Z,6540.00
2018-09-01T12:12:15.373Z,6476.00
2018-09-01T12:13:15.376Z,6532.00
2018-09-01T12:14:15.381Z,7312.00
2018-09-01T12:15:15.381Z,6288.00
2018-09-01T12:16:15.377Z,7496.00
2018-09-01T12:17:15.381Z,7428.00
2018-09-01T12:18:15.383Z,7460.00
2018-09-01T12:19:15.415Z,7616.00
2018-09-01T12:20:15.392Z,7664.00
2018-09-01T12:21:15.394Z,7612.00